KAPA/APA METAR and TAF weather

Enter ICAO airport designator
Station Type Date Time Source
KAPA METAR 2022/01/23 12:53 UTC NOAA

KAPA 231253Z 15003KT 10SM FEW160 FEW220 M04/M09 A3017 RMK AO2 SLP249 T10391089


Station Type Date Time Source
KAPA Decoded METAR 2022/01/23 12:53 UTC NOAA

DENVER CENTENNIAL AIRPORT, CO, United States (KAPA) 39-34N 104-51W 1775M
Jan 23, 2022 - 07:53 AM EST / 2022.01.23 1253 UTC
Wind: from the SSE (150 degrees) at 3 MPH (3 KT):0
Visibility: 10 mile(s):0
Sky conditions: mostly clear
Temperature: 25.0 F (-3.9 C)
Dew Point: 16.0 F (-8.9 C)
Relative Humidity: 68%
Pressure (altimeter): 30.17 in. Hg (1021 hPa)
ob: KAPA 231253Z 15003KT 10SM FEW160 FEW220 M04/M09 A3017 RMK AO2 SLP249 T10391089
cycle: 13

Station Type Date Time Source
KAPA TAF 2022/01/23 12:36 UTC NOAA

TAF KAPA 231134Z 2312/2412 17007KT P6SM FEW220
FM232200 VRB04KT P6SM FEW220
FM240300 22006KT P6SM FEW220

Example: see airport list